Time;durP1;ratioP1;P1;durP2;ratioP2;P2;SDS_P1;SDS_P2;PMS_P1;PMS_P2;Temp;Humidity;BMP_temperature;BMP_pressure;BME280_temperature;BME280_humidity;BME280_pressure;Samples;Min_cycle;Max_cycle;Signal;HPM_P1;HPM_P2
2023/05/27 00:00:50;;;;;;;15.57;2.58;;;10.50;99.90;;;;;;5089367;28;20039;-71
2023/05/27 00:03:16;;;;;;;19.20;2.30;;;10.40;99.90;;;;;;5095080;28;20024;-71
2023/05/27 00:05:41;;;;;;;11.85;2.10;;;10.40;99.90;;;;;;5093379;28;20402;-71
2023/05/27 00:08:07;;;;;;;9.77;3.25;;;10.40;99.90;;;;;;5091317;28;20085;-72
2023/05/27 00:10:33;;;;;;;9.63;1.58;;;10.30;99.90;;;;;;5097501;28;20466;-71
2023/05/27 00:12:58;;;;;;;11.70;2.63;;;10.30;99.90;;;;;;5091149;28;20028;-72
2023/05/27 00:15:24;;;;;;;14.15;2.80;;;10.30;99.90;;;;;;5092080;28;20020;-72
2023/05/27 00:17:52;;;;;;;13.10;2.67;;;10.30;99.90;;;;;;5089921;28;20032;-71
2023/05/27 00:20:19;;;;;;;9.55;2.03;;;10.20;99.90;;;;;;5088366;28;20536;-71
2023/05/27 00:22:45;;;;;;;9.27;1.98;;;10.20;99.90;;;;;;5089289;28;20537;-72
2023/05/27 00:25:13;;;;;;;7.35;1.80;;;10.10;99.90;;;;;;5088195;28;20061;-71
2023/05/27 00:27:38;;;;;;;18.33;2.90;;;10.10;99.90;;;;;;5094386;28;20075;-71
2023/05/27 00:30:05;;;;;;;8.20;1.60;;;10.00;99.90;;;;;;5093787;28;20056;-71
2023/05/27 00:32:30;;;;;;;9.23;2.20;;;10.10;99.90;;;;;;5085126;28;20040;-72
2023/05/27 00:34:56;;;;;;;10.50;2.17;;;10.00;99.90;;;;;;5087336;28;20028;-71
2023/05/27 00:37:27;;;;;;;11.00;1.75;;;10.00;99.90;;;;;;5087926;28;20035;-71
2023/05/27 00:39:53;;;;;;;13.40;1.88;;;10.00;99.90;;;;;;5096983;28;20067;-71
2023/05/27 00:42:19;;;;;;;9.18;1.83;;;10.00;99.90;;;;;;5089046;28;20134;-75
2023/05/27 00:44:45;;;;;;;10.50;2.78;;;10.00;99.90;;;;;;5090046;28;20036;-71
2023/05/27 00:47:18;;;;;;;7.78;2.08;;;10.00;99.90;;;;;;5089506;28;20661;-72
2023/05/27 00:49:46;;;;;;;15.95;2.40;;;9.90;99.90;;;;;;5087513;28;20047;-71
2023/05/27 00:52:13;;;;;;;13.10;2.83;;;9.90;99.90;;;;;;5096801;28;20032;-71
2023/05/27 00:54:40;;;;;;;10.48;2.45;;;9.90;99.90;;;;;;5090658;28;20032;-71
2023/05/27 00:57:06;;;;;;;12.27;1.75;;;9.90;99.90;;;;;;5093422;28;20450;-72
2023/05/27 00:59:31;;;;;;;11.13;2.20;;;9.90;99.90;;;;;;5091330;28;20043;-71
2023/05/27 01:01:57;;;;;;;6.05;1.20;;;9.90;99.90;;;;;;5095578;28;20039;-71
2023/05/27 01:04:24;;;;;;;10.98;1.63;;;9.90;99.90;;;;;;5091491;28;20039;-71
2023/05/27 01:07:10;;;;;;;16.85;2.28;;;9.80;99.90;;;;;;5094647;28;20034;-71
2023/05/27 01:10:04;;;;;;;11.73;2.15;;;9.80;99.90;;;;;;5085437;28;20139;-72
2023/05/27 01:12:48;;;;;;;15.15;2.83;;;9.80;99.90;;;;;;5086164;28;20067;-71
2023/05/27 01:15:18;;;;;;;10.93;1.63;;;9.70;99.90;;;;;;5091401;28;20043;-71
2023/05/27 01:17:47;;;;;;;7.90;2.35;;;9.70;99.90;;;;;;5091947;28;20561;-71
2023/05/27 01:20:17;;;;;;;5.47;1.38;;;9.70;99.90;;;;;;5091825;28;20028;-71
2023/05/27 01:22:43;;;;;;;14.43;2.13;;;9.70;99.90;;;;;;5090215;28;20640;-70
2023/05/27 01:25:09;;;;;;;11.98;3.05;;;9.60;99.90;;;;;;5091901;28;20025;-71
2023/05/27 01:27:42;;;;;;;17.40;2.78;;;9.60;99.90;;;;;;5089559;28;20435;-72
2023/05/27 01:30:11;;;;;;;11.85;1.98;;;9.60;99.90;;;;;;5093656;28;20484;-73
2023/05/27 01:32:45;;;;;;;10.40;1.52;;;9.50;99.90;;;;;;5091687;28;20032;-73
2023/05/27 01:35:23;;;;;;;13.05;2.65;;;9.50;99.90;;;;;;5087592;28;20146;-73
2023/05/27 01:37:51;;;;;;;9.90;1.88;;;9.50;99.90;;;;;;5091260;28;20105;-72
2023/05/27 01:40:17;;;;;;;16.60;2.88;;;9.50;99.90;;;;;;5095313;28;20024;-70
2023/05/27 01:42:44;;;;;;;8.65;2.17;;;9.50;99.90;;;;;;5093236;28;20030;-71
2023/05/27 01:45:11;;;;;;;13.68;1.77;;;9.50;99.90;;;;;;5090766;28;20032;-71
2023/05/27 01:47:36;;;;;;;11.93;1.48;;;9.40;99.90;;;;;;5092155;28;20606;-70
2023/05/27 01:50:03;;;;;;;7.35;1.63;;;9.40;99.90;;;;;;5092676;28;20118;-71
2023/05/27 01:52:28;;;;;;;12.50;1.60;;;9.30;99.90;;;;;;5094345;28;20039;-71
2023/05/27 01:54:54;;;;;;;12.00;2.00;;;9.30;99.90;;;;;;5098841;28;20552;-71
2023/05/27 01:57:20;;;;;;;10.45;2.58;;;9.30;99.90;;;;;;5092968;28;20024;-71
2023/05/27 01:59:47;;;;;;;11.38;2.20;;;9.20;99.90;;;;;;5096790;28;20044;-71
2023/05/27 02:02:12;;;;;;;11.75;2.25;;;9.20;99.90;;;;;;5094694;28;20162;-71
2023/05/27 02:04:38;;;;;;;17.48;1.80;;;9.20;99.90;;;;;;5094429;28;20114;-72
2023/05/27 02:07:03;;;;;;;13.02;1.77;;;9.20;99.90;;;;;;5096729;28;20413;-71
2023/05/27 02:09:29;;;;;;;8.27;2.13;;;9.20;99.90;;;;;;5093970;28;20040;-71
2023/05/27 02:11:55;;;;;;;12.13;1.55;;;9.20;99.90;;;;;;5096357;28;20032;-71
2023/05/27 02:14:21;;;;;;;6.30;2.28;;;9.20;99.90;;;;;;5094451;28;20036;-72
2023/05/27 02:16:49;;;;;;;13.27;1.83;;;9.10;99.90;;;;;;5093001;28;20840;-71
2023/05/27 02:19:20;;;;;;;7.75;2.13;;;9.10;99.90;;;;;;5093843;28;20056;-71
2023/05/27 02:21:48;;;;;;;8.63;2.10;;;9.10;99.90;;;;;;5099329;28;20027;-71
2023/05/27 02:24:17;;;;;;;13.73;2.05;;;9.10;99.90;;;;;;5099359;28;20067;-71
2023/05/27 02:26:42;;;;;;;7.90;1.65;;;9.10;99.90;;;;;;5097913;28;20039;-70
2023/05/27 02:29:08;;;;;;;8.32;2.22;;;9.10;99.90;;;;;;5095233;28;20441;-71
2023/05/27 02:31:33;;;;;;;14.88;2.55;;;9.10;99.90;;;;;;5097560;28;20616;-71
2023/05/27 02:33:59;;;;;;;12.38;2.72;;;9.10;99.90;;;;;;5097267;28;20054;-71
2023/05/27 02:36:25;;;;;;;12.48;2.83;;;9.10;99.90;;;;;;5099276;28;20058;-70
2023/05/27 02:38:50;;;;;;;19.95;2.40;;;9.10;99.90;;;;;;5089940;28;20097;-71
2023/05/27 02:41:22;;;;;;;8.15;1.92;;;9.00;99.90;;;;;;5092655;28;20132;-71
2023/05/27 02:43:47;;;;;;;17.88;2.85;;;9.10;99.90;;;;;;5091184;28;20500;-71
2023/05/27 02:46:19;;;;;;;8.25;1.40;;;9.10;99.90;;;;;;5095260;28;20104;-71
2023/05/27 02:48:45;;;;;;;8.88;2.67;;;9.10;99.90;;;;;;5098393;28;20040;-71
2023/05/27 02:51:11;;;;;;;9.85;1.73;;;9.10;99.90;;;;;;5096447;28;20035;-71
2023/05/27 02:53:36;;;;;;;8.18;2.28;;;9.10;99.90;;;;;;5091582;28;20059;-72
2023/05/27 02:56:02;;;;;;;16.45;3.22;;;9.00;99.90;;;;;;5094935;28;20047;-71
2023/05/27 02:58:31;;;;;;;15.05;1.70;;;9.00;99.90;;;;;;5102856;27;20100;-71
2023/05/27 03:00:59;;;;;;;11.75;1.70;;;9.00;99.90;;;;;;5091499;28;20028;-72
2023/05/27 03:03:25;;;;;;;10.00;2.63;;;9.00;99.90;;;;;;5092084;28;20051;-72
2023/05/27 03:05:53;;;;;;;9.55;1.63;;;9.00;99.90;;;;;;5086645;28;20040;-71
2023/05/27 03:08:19;;;;;;;10.63;2.97;;;9.00;99.90;;;;;;5090232;28;20036;-72
2023/05/27 03:10:45;;;;;;;9.18;2.42;;;8.90;99.90;;;;;;5097940;28;21277;-72
2023/05/27 03:13:10;;;;;;;14.18;2.00;;;8.90;99.90;;;;;;5097126;27;20047;-72
2023/05/27 03:15:42;;;;;;;11.48;2.08;;;8.90;99.90;;;;;;5094673;28;20081;-71
2023/05/27 03:18:10;;;;;;;9.23;2.33;;;8.90;99.90;;;;;;5086529;28;20093;-71
2023/05/27 03:20:39;;;;;;;15.02;2.15;;;8.90;99.90;;;;;;5091355;28;20036;-71
2023/05/27 03:23:04;;;;;;;13.65;2.20;;;8.90;99.90;;;;;;5090449;28;20096;-71
2023/05/27 03:25:30;;;;;;;12.02;2.38;;;8.90;99.90;;;;;;5089679;28;20028;-72
2023/05/27 03:27:58;;;;;;;13.70;1.67;;;8.80;99.90;;;;;;5098930;27;20043;-71
2023/05/27 03:30:24;;;;;;;11.63;2.83;;;8.80;99.90;;;;;;5089139;28;20055;-72
2023/05/27 03:32:53;;;;;;;18.35;2.45;;;8.70;99.90;;;;;;5091431;28;20642;-70
2023/05/27 03:35:18;;;;;;;11.18;2.55;;;8.70;99.90;;;;;;5086537;28;20034;-71
2023/05/27 03:37:44;;;;;;;10.88;2.38;;;8.70;99.90;;;;;;5085574;28;20857;-71
2023/05/27 03:40:10;;;;;;;13.50;2.20;;;8.70;99.90;;;;;;5090104;28;20029;-71
2023/05/27 03:42:41;;;;;;;11.43;2.33;;;8.60;99.90;;;;;;5089086;28;20035;-70
2023/05/27 03:45:13;;;;;;;12.55;2.03;;;8.70;99.90;;;;;;5094501;28;20452;-71
2023/05/27 03:47:41;;;;;;;13.75;2.85;;;8.60;99.90;;;;;;5086764;28;20040;-71
2023/05/27 03:50:07;;;;;;;6.90;1.65;;;8.70;99.90;;;;;;5089548;28;20543;-72
2023/05/27 03:52:36;;;;;;;11.23;2.17;;;8.70;99.90;;;;;;5085306;28;20040;-72
2023/05/27 03:55:01;;;;;;;10.25;2.33;;;8.70;99.90;;;;;;5087957;28;20090;-71
2023/05/27 03:57:27;;;;;;;16.08;2.42;;;8.60;99.90;;;;;;5093013;28;20036;-71
2023/05/27 03:59:52;;;;;;;8.75;2.20;;;8.60;99.90;;;;;;5084594;28;20032;-71
2023/05/27 04:02:18;;;;;;;10.80;1.58;;;8.70;99.90;;;;;;5089800;28;20035;-71
2023/05/27 04:04:43;;;;;;;17.38;2.85;;;8.70;99.90;;;;;;5093358;28;20032;-71
2023/05/27 04:07:09;;;;;;;13.23;2.33;;;8.70;99.90;;;;;;5089223;28;20039;-71
2023/05/27 04:09:35;;;;;;;12.45;2.00;;;8.60;99.90;;;;;;5087352;28;20032;-71
2023/05/27 04:12:00;;;;;;;12.25;2.33;;;8.70;99.90;;;;;;5087536;28;20096;-70
2023/05/27 04:14:26;;;;;;;10.63;1.95;;;8.70;99.90;;;;;;5093190;28;20036;-71
2023/05/27 04:16:52;;;;;;;20.52;2.53;;;8.70;99.90;;;;;;5096606;28;20035;-73
2023/05/27 04:19:20;;;;;;;7.00;2.13;;;8.70;99.90;;;;;;5092474;28;20032;-71
2023/05/27 04:21:46;;;;;;;8.45;1.58;;;8.80;99.90;;;;;;5088144;28;20137;-70
2023/05/27 04:24:14;;;;;;;11.88;3.25;;;8.80;99.90;;;;;;5089240;28;20125;-70
2023/05/27 04:26:40;;;;;;;20.45;2.85;;;8.80;99.90;;;;;;5090717;28;22186;-71
2023/05/27 04:29:09;;;;;;;9.32;1.88;;;8.80;99.90;;;;;;5088429;28;20036;-72
2023/05/27 04:31:40;;;;;;;15.75;3.25;;;8.90;99.90;;;;;;5088841;28;20078;-71
2023/05/27 04:34:06;;;;;;;11.45;2.78;;;8.90;99.90;;;;;;5089831;28;20492;-71
2023/05/27 04:36:34;;;;;;;6.72;1.85;;;8.90;99.90;;;;;;5086503;28;20088;-70
2023/05/27 04:39:04;;;;;;;5.00;1.35;;;8.90;99.90;;;;;;5092301;28;20035;-71
2023/05/27 04:41:32;;;;;;;10.07;2.70;;;8.90;99.90;;;;;;5089721;28;20104;-71
2023/05/27 04:44:00;;;;;;;10.73;3.28;;;8.90;99.90;;;;;;5088866;28;20031;-71
2023/05/27 04:46:35;;;;;;;11.07;2.08;;;8.90;99.90;;;;;;5087270;27;20051;-71
2023/05/27 04:49:01;;;;;;;13.98;2.55;;;8.90;99.90;;;;;;5090708;28;20032;-71
2023/05/27 04:51:26;;;;;;;15.88;3.25;;;9.00;99.90;;;;;;5086099;28;20075;-71
2023/05/27 04:53:54;;;;;;;14.57;1.85;;;9.00;99.90;;;;;;5096949;28;20067;-71
2023/05/27 04:56:19;;;;;;;13.45;1.85;;;9.00;99.90;;;;;;5090540;27;20100;-71
2023/05/27 04:58:49;;;;;;;8.25;1.80;;;9.10;99.90;;;;;;5092279;27;20044;-71
2023/05/27 05:01:20;;;;;;;9.68;2.33;;;9.10;99.90;;;;;;5089747;28;20089;-72
2023/05/27 05:03:52;;;;;;;8.75;1.88;;;9.20;99.90;;;;;;5088024;28;20143;-71
2023/05/27 05:06:22;;;;;;;13.40;1.88;;;9.20;99.90;;;;;;5090644;28;20432;-71
2023/05/27 05:08:54;;;;;;;8.68;2.20;;;9.40;99.90;;;;;;5080442;28;20502;-71
2023/05/27 05:11:26;;;;;;;7.70;1.27;;;9.40;99.90;;;;;;5086302;28;20134;-72
2023/05/27 05:13:51;;;;;;;11.90;2.35;;;9.40;99.90;;;;;;5092621;28;20028;-71
2023/05/27 05:16:20;;;;;;;10.05;2.97;;;9.50;99.90;;;;;;5089128;28;20038;-70
2023/05/27 05:18:45;;;;;;;17.52;3.42;;;9.50;99.90;;;;;;5079724;28;20114;-71
2023/05/27 05:21:17;;;;;;;8.93;1.42;;;9.60;99.90;;;;;;5089595;28;20050;-71
2023/05/27 05:23:46;;;;;;;10.98;1.88;;;9.70;99.90;;;;;;5090880;28;20056;-71
2023/05/27 05:26:21;;;;;;;17.85;3.35;;;9.80;99.90;;;;;;5099318;27;20043;-71
2023/05/27 05:28:47;;;;;;;13.18;3.22;;;9.80;99.90;;;;;;5083516;28;20464;-71
2023/05/27 05:31:12;;;;;;;13.05;2.50;;;10.00;99.90;;;;;;5096957;27;20110;-71
2023/05/27 05:33:38;;;;;;;7.93;1.67;;;10.10;99.90;;;;;;5096288;27;20564;-72
2023/05/27 05:36:03;;;;;;;14.73;1.77;;;10.20;99.90;;;;;;5096702;27;20070;-70
2023/05/27 05:38:29;;;;;;;11.10;1.60;;;10.50;99.90;;;;;;5098647;27;20127;-71
2023/05/27 05:40:56;;;;;;;9.23;1.58;;;10.80;99.90;;;;;;5096863;28;20127;-72
2023/05/27 05:43:21;;;;;;;7.97;1.27;;;11.10;99.90;;;;;;5096669;28;20047;-72
2023/05/27 05:45:47;;;;;;;16.95;2.75;;;11.50;99.90;;;;;;5090709;28;20100;-72
2023/05/27 05:48:12;;;;;;;13.20;2.08;;;12.00;99.90;;;;;;5097167;27;20503;-71
2023/05/27 05:50:38;;;;;;;11.60;1.70;;;12.50;99.90;;;;;;5098967;27;20060;-71
2023/05/27 05:53:03;;;;;;;7.82;1.15;;;12.90;99.90;;;;;;5099087;28;20111;-71
2023/05/27 05:55:32;;;;;;;10.35;1.80;;;13.20;99.90;;;;;;5096339;27;20389;-72
2023/05/27 05:58:00;;;;;;;17.88;2.92;;;13.60;99.90;;;;;;5099307;28;20488;-71
2023/05/27 06:00:32;;;;;;;9.38;1.92;;;13.70;99.90;;;;;;5097642;28;20044;-71
2023/05/27 06:03:03;;;;;;;9.77;1.73;;;14.00;99.90;;;;;;5094060;27;20028;-71
2023/05/27 06:05:31;;;;;;;11.35;1.70;;;14.50;99.90;;;;;;5099748;27;20034;-71
2023/05/27 06:07:57;;;;;;;7.22;1.73;;;14.90;99.90;;;;;;5099642;28;20251;-72
2023/05/27 06:10:22;;;;;;;8.43;1.58;;;15.30;99.90;;;;;;5098656;27;20028;-72
2023/05/27 06:12:48;;;;;;;14.02;1.52;;;15.90;99.90;;;;;;5103409;27;20593;-71
2023/05/27 06:15:16;;;;;;;8.68;1.50;;;16.60;99.80;;;;;;5099046;27;20032;-71
2023/05/27 06:17:43;;;;;;;8.98;1.90;;;16.90;98.60;;;;;;5096932;27;20402;-71
2023/05/27 06:20:10;;;;;;;10.15;2.28;;;17.20;98.10;;;;;;5092342;27;20042;-71
2023/05/27 06:22:35;;;;;;;10.02;1.40;;;17.50;97.80;;;;;;5099249;27;20131;-72
2023/05/27 06:25:01;;;;;;;8.90;1.73;;;18.10;96.80;;;;;;5100340;27;20122;-71
2023/05/27 06:27:26;;;;;;;7.72;1.52;;;18.30;96.40;;;;;;5095380;27;20734;-74
2023/05/27 06:29:56;;;;;;;11.23;1.88;;;18.60;96.10;;;;;;5097079;28;20040;-71
2023/05/27 06:32:27;;;;;;;7.30;2.33;;;19.40;95.70;;;;;;5100277;27;20091;-72
2023/05/27 06:34:56;;;;;;;11.00;2.20;;;19.90;95.30;;;;;;5100113;27;20044;-73
2023/05/27 06:37:24;;;;;;;9.88;2.70;;;20.70;93.90;;;;;;5094056;27;20494;-72
2023/05/27 06:39:53;;;;;;;10.07;1.92;;;21.50;93.00;;;;;;5090670;28;20040;-71
2023/05/27 06:42:18;;;;;;;5.88;1.67;;;22.10;92.60;;;;;;5088047;28;20032;-70
2023/05/27 06:44:47;;;;;;;7.18;2.30;;;22.80;90.80;;;;;;5091194;28;20032;-71
2023/05/27 06:47:12;;;;;;;10.57;1.90;;;22.90;90.40;;;;;;5091092;28;20062;-71
2023/05/27 06:49:41;;;;;;;8.73;1.48;;;22.90;88.80;;;;;;5086309;28;20574;-71
2023/05/27 06:52:06;;;;;;;11.85;2.95;;;22.60;90.00;;;;;;5093096;28;20047;-71
2023/05/27 06:54:36;;;;;;;5.93;1.50;;;22.50;90.10;;;;;;5094196;27;20028;-71
2023/05/27 06:57:08;;;;;;;13.40;2.27;;;22.30;89.80;;;;;;5089051;28;20032;-70
2023/05/27 06:59:45;;;;;;;4.25;1.65;;;21.60;90.60;;;;;;5088790;28;20071;-71
2023/05/27 07:02:14;;;;;;;8.73;1.98;;;21.00;91.00;;;;;;5085512;28;20055;-71
2023/05/27 07:04:42;;;;;;;9.70;2.33;;;20.30;91.40;;;;;;5090578;28;20051;-71
2023/05/27 07:07:10;;;;;;;8.18;1.77;;;19.80;92.20;;;;;;5089688;28;20027;-71
2023/05/27 07:09:36;;;;;;;10.15;1.52;;;19.20;92.60;;;;;;5092135;28;20144;-71
2023/05/27 07:12:02;;;;;;;7.47;1.92;;;18.40;93.40;;;;;;5096892;28;20138;-71
2023/05/27 07:14:31;;;;;;;9.65;2.13;;;17.60;94.50;;;;;;5092991;28;20059;-72
2023/05/27 07:16:56;;;;;;;9.00;1.98;;;17.10;95.30;;;;;;5089685;28;20028;-71
2023/05/27 07:19:22;;;;;;;7.80;1.92;;;17.00;96.00;;;;;;5093770;28;20626;-75
2023/05/27 07:21:48;;;;;;;13.32;2.17;;;17.60;95.50;;;;;;5095211;27;20035;-72
2023/05/27 07:24:13;;;;;;;6.85;1.80;;;18.30;94.40;;;;;;5091785;27;20093;-71
2023/05/27 07:26:40;;;;;;;6.40;1.38;;;18.60;94.80;;;;;;5091611;28;20119;-72
2023/05/27 07:29:05;;;;;;;12.43;2.70;;;18.60;94.50;;;;;;5089405;28;20039;-70
2023/05/27 07:31:31;;;;;;;8.73;1.45;;;18.70;94.50;;;;;;5084832;28;20088;-71
2023/05/27 07:33:57;;;;;;;10.38;1.95;;;19.20;94.90;;;;;;5086528;28;20059;-71
2023/05/27 07:36:22;;;;;;;8.93;2.00;;;20.30;93.00;;;;;;5088250;28;20502;-71
2023/05/27 07:38:48;;;;;;;8.68;2.58;;;21.00;92.30;;;;;;5090662;28;20115;-72
2023/05/27 07:41:14;;;;;;;8.20;2.10;;;21.90;92.00;;;;;;5086325;28;20526;-71
2023/05/27 07:43:39;;;;;;;10.40;2.28;;;22.80;90.80;;;;;;5090502;28;20119;-70
2023/05/27 07:46:05;;;;;;;8.82;2.25;;;23.70;90.20;;;;;;5087317;28;20480;-72
2023/05/27 07:48:31;;;;;;;8.15;2.55;;;24.50;88.80;;;;;;5085805;28;20575;-72
2023/05/27 07:50:57;;;;;;;13.00;2.97;;;25.20;84.50;;;;;;5090315;28;20040;-72
2023/05/27 07:53:22;;;;;;;8.73;2.28;;;24.80;82.60;;;;;;5089202;28;20504;-72
2023/05/27 07:55:48;;;;;;;13.15;3.30;;;24.80;82.40;;;;;;5086709;28;20032;-72
2023/05/27 07:58:14;;;;;;;7.97;2.47;;;24.10;83.50;;;;;;5088630;28;20034;-72
2023/05/27 08:00:39;;;;;;;8.43;2.20;;;24.10;83.80;;;;;;5089966;28;20028;-72
2023/05/27 08:03:05;;;;;;;8.50;2.10;;;24.00;83.10;;;;;;5088718;28;20024;-73
2023/05/27 08:05:32;;;;;;;9.15;1.80;;;23.20;86.20;;;;;;5087788;28;20093;-72
2023/05/27 08:07:58;;;;;;;12.45;2.38;;;22.80;85.50;;;;;;5091296;28;20614;-71
2023/05/27 08:10:24;;;;;;;7.05;1.60;;;22.30;87.10;;;;;;5086136;28;20028;-71
2023/05/27 08:12:50;;;;;;;17.58;3.10;;;21.70;89.70;;;;;;5089969;28;20620;-71
2023/05/27 08:15:15;;;;;;;9.20;2.22;;;21.30;89.00;;;;;;5092868;28;20125;-72
2023/05/27 08:17:44;;;;;;;10.02;2.08;;;21.00;90.40;;;;;;5092350;28;20032;-70
2023/05/27 08:20:10;;;;;;;13.30;2.85;;;20.70;90.90;;;;;;5096154;28;20055;-71
2023/05/27 08:22:36;;;;;;;10.25;2.20;;;20.60;90.70;;;;;;5091709;28;20032;-71
2023/05/27 08:25:02;;;;;;;8.95;2.13;;;20.30;90.70;;;;;;5090875;27;20098;-71
2023/05/27 08:27:51;;;;;;;4.35;1.75;;;20.20;90.80;;;;;;5085041;28;20032;-70
2023/05/27 08:30:18;;;;;;;7.80;2.05;;;20.30;90.70;;;;;;5085995;28;20123;-69
2023/05/27 08:32:44;;;;;;;8.48;2.05;;;20.10;91.00;;;;;;5087529;28;20028;-69
2023/05/27 08:35:11;;;;;;;7.82;1.58;;;20.00;91.20;;;;;;5091137;28;20042;-70
2023/05/27 08:37:40;;;;;;;10.52;2.10;;;20.00;91.60;;;;;;5087866;28;20111;-70
2023/05/27 08:40:10;;;;;;;8.77;1.40;;;20.00;91.30;;;;;;5094265;28;20032;-69
2023/05/27 08:42:36;;;;;;;9.60;1.70;;;20.00;91.40;;;;;;5087091;28;20040;-70
2023/05/27 08:45:02;;;;;;;11.07;2.45;;;19.90;92.00;;;;;;5088659;28;20552;-70
2023/05/27 08:47:30;;;;;;;12.70;2.63;;;19.90;92.00;;;;;;5085492;28;20127;-70
2023/05/27 08:49:59;;;;;;;13.50;2.50;;;19.90;92.50;;;;;;5090835;28;20046;-72
2023/05/27 08:52:27;;;;;;;10.00;1.60;;;20.00;91.60;;;;;;5091754;28;20142;-70
2023/05/27 08:54:54;;;;;;;14.65;2.50;;;20.00;92.50;;;;;;5090854;28;20040;-70
2023/05/27 08:57:21;;;;;;;6.72;1.73;;;19.90;92.00;;;;;;5087082;28;20024;-72
2023/05/27 08:59:51;;;;;;;7.78;1.73;;;19.80;92.40;;;;;;5086685;28;20032;-71
2023/05/27 09:02:18;;;;;;;11.10;1.83;;;19.80;92.00;;;;;;5085270;28;20039;-69
2023/05/27 09:04:46;;;;;;;8.73;1.67;;;19.80;91.90;;;;;;5090398;28;20115;-70
2023/05/27 09:07:12;;;;;;;10.30;2.35;;;19.90;92.10;;;;;;5090163;28;20043;-70
2023/05/27 09:09:38;;;;;;;11.95;2.10;;;19.80;91.70;;;;;;5085335;28;20089;-68
2023/05/27 09:12:08;;;;;;;7.85;1.50;;;19.90;91.70;;;;;;5084160;28;20103;-67
2023/05/27 09:14:38;;;;;;;11.50;1.67;;;20.00;91.60;;;;;;5090245;28;20039;-69
2023/05/27 09:17:08;;;;;;;11.98;2.25;;;19.80;91.90;;;;;;5085901;28;20557;-68
2023/05/27 09:19:34;;;;;;;9.80;1.58;;;19.80;92.50;;;;;;5090196;28;20036;-69
2023/05/27 09:22:00;;;;;;;9.40;2.05;;;19.80;92.50;;;;;;5089561;28;20572;-68
2023/05/27 09:24:26;;;;;;;11.27;2.13;;;20.00;92.40;;;;;;5084413;28;20027;-69
2023/05/27 09:26:54;;;;;;;13.05;2.85;;;20.10;92.80;;;;;;5088245;28;20035;-69
2023/05/27 09:29:22;;;;;;;10.25;1.70;;;20.20;91.20;;;;;;5086729;28;20039;-70
2023/05/27 09:31:48;;;;;;;5.93;1.60;;;20.30;91.10;;;;;;5081900;28;20057;-71
2023/05/27 09:34:15;;;;;;;10.82;2.28;;;20.30;92.00;;;;;;5083156;28;20455;-70
2023/05/27 09:36:44;;;;;;;11.18;2.63;;;20.40;91.80;;;;;;5088066;28;20143;-73
2023/05/27 09:39:11;;;;;;;9.75;1.88;;;20.50;91.70;;;;;;5086603;28;20495;-70
2023/05/27 09:41:38;;;;;;;9.80;1.70;;;20.50;91.40;;;;;;5085368;28;20131;-72
2023/05/27 09:44:05;;;;;;;10.77;2.05;;;20.40;91.80;;;;;;5084723;28;20028;-71
2023/05/27 09:46:33;;;;;;;9.77;1.63;;;20.50;91.70;;;;;;5084458;28;20433;-72
2023/05/27 09:48:59;;;;;;;9.57;1.55;;;20.60;91.20;;;;;;5081639;28;20028;-72
2023/05/27 09:51:26;;;;;;;12.70;2.13;;;20.70;92.00;;;;;;5089856;28;20035;-72
2023/05/27 09:53:55;;;;;;;17.55;3.03;;;20.90;91.90;;;;;;5087048;28;20081;-73
2023/05/27 09:56:23;;;;;;;12.27;2.67;;;20.90;90.70;;;;;;5085871;28;20032;-73
2023/05/27 09:58:49;;;;;;;10.77;2.13;;;21.00;90.20;;;;;;5082246;28;20172;-73
2023/05/27 10:01:17;;;;;;;12.48;2.03;;;21.00;90.10;;;;;;5082849;28;20503;-72
2023/05/27 10:03:44;;;;;;;10.30;1.98;;;21.00;90.00;;;;;;5083471;28;20060;-72
2023/05/27 10:06:12;;;;;;;7.10;1.83;;;21.00;90.10;;;;;;5084375;28;20036;-73
2023/05/27 10:08:38;;;;;;;10.05;2.30;;;20.90;90.10;;;;;;5084641;28;20028;-73
2023/05/27 10:11:04;;;;;;;11.48;1.98;;;20.70;90.20;;;;;;5083067;28;20112;-72
2023/05/27 10:13:30;;;;;;;9.00;2.20;;;20.70;90.40;;;;;;5084494;28;20028;-73
2023/05/27 10:15:56;;;;;;;9.75;2.05;;;20.80;90.60;;;;;;5086114;28;20024;-73
2023/05/27 10:18:23;;;;;;;9.20;2.08;;;20.60;90.70;;;;;;5089349;28;20039;-73
2023/05/27 10:20:50;;;;;;;10.55;2.13;;;20.60;90.80;;;;;;5085802;28;20039;-72
2023/05/27 10:23:23;;;;;;;7.35;2.00;;;20.70;91.30;;;;;;5087277;28;20044;-73
2023/05/27 10:25:51;;;;;;;8.93;2.33;;;20.60;90.70;;;;;;5087632;28;20028;-72
2023/05/27 10:28:27;;;;;;;10.15;2.00;;;20.60;90.70;;;;;;5090313;28;20032;-73
2023/05/27 10:30:53;;;;;;;6.72;2.08;;;20.60;89.20;;;;;;5120186;27;20102;-69
2023/05/27 10:33:33;;;;;;;9.32;1.75;;;20.60;88.50;;;;;;5087746;28;20050;-71
2023/05/27 10:36:11;;;;;;;8.40;1.80;;;20.60;89.10;;;;;;5087288;28;20101;-72
2023/05/27 10:38:37;;;;;;;8.27;2.15;;;20.80;90.50;;;;;;5090078;28;20035;-71
2023/05/27 10:41:05;;;;;;;6.72;1.90;;;20.90;90.80;;;;;;5089479;28;20028;-72
2023/05/27 10:43:33;;;;;;;11.70;2.35;;;21.10;86.80;;;;;;5086314;28;20060;-71
2023/05/27 10:46:07;;;;;;;7.72;1.85;;;21.10;86.80;;;;;;5090604;28;20027;-72
2023/05/27 10:48:33;;;;;;;6.35;1.52;;;21.10;87.10;;;;;;5087179;28;20039;-70
2023/05/27 10:50:59;;;;;;;9.38;2.00;;;21.10;88.40;;;;;;5090263;28;20380;-72
2023/05/27 10:53:27;;;;;;;8.73;2.03;;;21.10;89.00;;;;;;5086981;28;20055;-73
2023/05/27 10:55:52;;;;;;;6.93;1.95;;;21.20;89.80;;;;;;5087486;28;20082;-72
2023/05/27 10:58:19;;;;;;;7.22;2.30;;;21.20;89.40;;;;;;5087697;28;20488;-72
2023/05/27 11:00:48;;;;;;;9.15;1.70;;;21.30;87.90;;;;;;5088593;28;20530;-72
2023/05/27 11:03:22;;;;;;;11.00;2.75;;;21.40;87.60;;;;;;5087190;28;20165;-71
2023/05/27 11:06:05;;;;;;;7.18;1.75;;;21.30;89.10;;;;;;5090003;28;20640;-72
2023/05/27 11:08:32;;;;;;;6.93;1.98;;;21.20;88.60;;;;;;5086861;28;20141;-72
2023/05/27 11:10:59;;;;;;;8.85;2.20;;;21.40;87.80;;;;;;5091380;28;20051;-71
2023/05/27 11:13:45;;;;;;;11.43;2.67;;;21.50;88.10;;;;;;5090326;28;20053;-71
2023/05/27 11:16:12;;;;;;;9.73;2.15;;;21.50;87.10;;;;;;5088409;28;20066;-71
2023/05/27 11:18:43;;;;;;;13.63;1.77;;;21.60;87.90;;;;;;5090117;28;20127;-71
2023/05/27 11:21:10;;;;;;;7.90;1.67;;;21.50;87.20;;;;;;5090903;28;20028;-71
2023/05/27 11:23:42;;;;;;;13.45;1.83;;;21.60;85.50;;;;;;5084611;28;20760;-72
2023/05/27 11:26:17;;;;;;;7.25;1.98;;;21.60;84.70;;;;;;5089968;28;20038;-71
2023/05/27 11:28:58;;;;;;;4.22;1.48;;;21.60;84.90;;;;;;5094308;28;20046;-72
2023/05/27 11:31:28;;;;;;;8.10;2.20;;;21.60;84.40;;;;;;5090536;28;20039;-73
2023/05/27 11:33:54;;;;;;;;;;;21.60;85.20;;;;;;5092638;28;20093;-71
2023/05/27 11:36:21;;;;;;;7.50;1.52;;;21.50;86.60;;;;;;5087019;28;19920;-71
2023/05/27 11:38:58;;;;;;;7.68;2.78;;;21.60;86.10;;;;;;5096117;28;20094;-72
2023/05/27 11:41:28;;;;;;;10.40;3.25;;;21.80;85.80;;;;;;5089835;28;20047;-72
2023/05/27 11:43:55;;;;;;;;;;;21.80;84.80;;;;;;5090505;28;20546;-72
2023/05/27 11:46:21;;;;;;;9.65;1.67;;;21.80;87.90;;;;;;5091013;28;19911;-72
2023/05/27 11:48:51;;;;;;;5.78;1.70;;;21.80;87.60;;;;;;5085923;28;20489;-72
2023/05/27 11:51:27;;;;;;;6.50;2.80;;;21.80;85.40;;;;;;5087173;28;20092;-72
2023/05/27 11:54:00;;;;;;;9.73;2.33;;;21.80;85.40;;;;;;5085174;27;20125;-72
2023/05/27 11:56:26;;;;;;;11.38;2.20;;;21.80;85.90;;;;;;5112129;27;20047;-73
2023/05/27 11:58:52;;;;;;;6.90;1.80;;;21.80;86.70;;;;;;5086447;28;20510;-71
2023/05/27 12:01:17;;;;;;;7.78;1.90;;;21.80;85.60;;;;;;5090090;28;20031;-71
2023/05/27 12:03:43;;;;;;;8.43;1.75;;;21.80;85.20;;;;;;5085893;28;20048;-72
2023/05/27 12:06:11;;;;;;;6.63;1.60;;;21.80;84.70;;;;;;5087762;28;20028;-72
2023/05/27 12:08:38;;;;;;;8.80;2.70;;;21.70;83.80;;;;;;5084061;28;20111;-72
2023/05/27 12:11:04;;;;;;;8.30;1.50;;;21.70;84.20;;;;;;5087101;27;20032;-71
2023/05/27 12:13:31;;;;;;;8.68;1.85;;;21.70;85.60;;;;;;5085897;28;20048;-70
2023/05/27 12:15:58;;;;;;;11.95;2.50;;;21.80;85.40;;;;;;5084050;28;20067;-71
2023/05/27 12:18:23;;;;;;;6.32;1.80;;;21.80;83.00;;;;;;5087491;28;20377;-73
2023/05/27 12:20:50;;;;;;;8.40;1.58;;;21.80;83.20;;;;;;5086069;28;20031;-71
2023/05/27 12:23:18;;;;;;;8.77;2.00;;;21.80;84.10;;;;;;5089772;28;20035;-72
2023/05/27 12:25:44;;;;;;;10.30;2.10;;;21.80;82.70;;;;;;5084885;28;20376;-73
2023/05/27 12:28:10;;;;;;;7.60;2.15;;;21.70;83.20;;;;;;5088554;28;20043;-72
2023/05/27 12:30:36;;;;;;;6.20;1.70;;;21.60;84.60;;;;;;5089714;28;20039;-72
2023/05/27 12:33:06;;;;;;;5.10;1.83;;;21.50;85.30;;;;;;5087767;28;20024;-71
2023/05/27 12:35:32;;;;;;;11.43;3.27;;;21.40;85.80;;;;;;5088947;28;20031;-72
2023/05/27 12:37:58;;;;;;;8.93;1.88;;;21.50;88.40;;;;;;5085685;28;20034;-72
2023/05/27 12:40:24;;;;;;;7.22;2.13;;;21.50;90.50;;;;;;5091438;28;20035;-72
2023/05/27 12:42:50;;;;;;;12.75;2.90;;;21.50;90.90;;;;;;5086443;28;20135;-71
2023/05/27 12:45:16;;;;;;;7.43;2.03;;;21.50;90.60;;;;;;5095049;28;20459;-70
2023/05/27 12:47:41;;;;;;;6.82;2.50;;;21.40;91.00;;;;;;5092455;28;20035;-71